Time;durP1;ratioP1;P1;durP2;ratioP2;P2;SDS_P1;SDS_P2;PMS_P1;PMS_P2;Temp;Humidity;BMP_temperature;BMP_pressure;BME280_temperature;BME280_humidity;BME280_pressure;Samples;Min_cycle;Max_cycle;Signal;HPM_P1;HPM_P2
2021/10/01 00:01:06;;;;;;;1.80;1.70;;;18.40;46.20;;;;;;5075201;28;20195;-46
2021/10/01 00:03:32;;;;;;;2.30;2.10;;;18.40;46.10;;;;;;5079379;28;20192;-51
2021/10/01 00:05:57;;;;;;;1.83;1.73;;;18.40;46.50;;;;;;5078176;28;20547;-49
2021/10/01 00:08:23;;;;;;;2.30;2.10;;;18.40;47.20;;;;;;5076643;28;20224;-50
2021/10/01 00:10:49;;;;;;;2.80;1.90;;;18.40;47.30;;;;;;5082921;28;20199;-52
2021/10/01 00:13:14;;;;;;;2.87;2.10;;;18.50;46.90;;;;;;5091095;28;20270;-51
2021/10/01 00:15:40;;;;;;;5.83;2.00;;;18.50;46.50;;;;;;5089592;28;20194;-49
2021/10/01 00:18:06;;;;;;;2.43;1.70;;;18.40;45.70;;;;;;5078953;28;20188;-47
2021/10/01 00:20:32;;;;;;;2.30;2.10;;;18.30;45.80;;;;;;5079034;28;20724;-51
2021/10/01 00:22:57;;;;;;;3.27;1.80;;;18.30;45.80;;;;;;5083261;28;20219;-52
2021/10/01 00:25:23;;;;;;;3.43;2.33;;;18.30;46.50;;;;;;5087607;28;20725;-50
2021/10/01 00:27:48;;;;;;;2.93;2.50;;;18.30;46.80;;;;;;5083939;28;20243;-51
2021/10/01 00:30:14;;;;;;;1.80;1.63;;;18.40;47.30;;;;;;5086123;28;20195;-47
2021/10/01 00:32:40;;;;;;;2.67;1.70;;;18.40;46.30;;;;;;5082104;28;20256;-52
2021/10/01 00:35:06;;;;;;;2.40;2.00;;;18.40;46.60;;;;;;5082490;28;20797;-49
2021/10/01 00:37:32;;;;;;;1.87;1.67;;;18.40;47.40;;;;;;5073991;28;20238;-50
2021/10/01 00:39:57;;;;;;;2.20;1.90;;;18.40;47.30;;;;;;5073709;28;20524;-49
2021/10/01 00:42:23;;;;;;;1.67;1.57;;;18.50;47.50;;;;;;5080232;28;20187;-51
2021/10/01 00:44:49;;;;;;;2.63;1.70;;;18.50;46.70;;;;;;5074251;28;20192;-47
2021/10/01 00:47:15;;;;;;;2.20;1.80;;;18.50;46.50;;;;;;5083900;28;20196;-51
2021/10/01 00:49:41;;;;;;;2.83;1.90;;;18.40;46.90;;;;;;5081386;28;20448;-48
2021/10/01 00:52:08;;;;;;;2.63;1.90;;;18.50;47.70;;;;;;5078338;28;20274;-52
2021/10/01 00:54:35;;;;;;;2.73;1.70;;;18.50;47.60;;;;;;5076201;28;20542;-52
2021/10/01 00:57:01;;;;;;;2.37;1.70;;;18.40;47.30;;;;;;5080201;28;20484;-52
2021/10/01 00:59:27;;;;;;;2.00;1.80;;;18.40;47.10;;;;;;5074548;28;20443;-50
2021/10/01 01:01:53;;;;;;;2.90;1.90;;;18.40;47.40;;;;;;5074511;28;20855;-50
2021/10/01 01:04:19;;;;;;;3.13;2.30;;;18.50;47.50;;;;;;5086434;28;20528;-52
2021/10/01 01:07:03;;;;;;;4.73;1.97;;;18.50;47.20;;;;;;5080407;28;20230;-49
2021/10/01 01:09:31;;;;;;;2.70;1.80;;;18.40;46.40;;;;;;5079031;28;20447;-52
2021/10/01 01:12:09;;;;;;;2.20;2.00;;;18.40;47.20;;;;;;5076539;28;20443;-51
2021/10/01 01:14:56;;;;;;;2.37;1.50;;;18.20;46.80;;;;;;5076610;28;20554;-52
2021/10/01 01:17:29;;;;;;;3.50;1.93;;;18.20;47.60;;;;;;5077699;28;20456;-50
2021/10/01 01:20:12;;;;;;;4.07;2.00;;;18.10;47.30;;;;;;5083206;28;20433;-51
2021/10/01 01:22:53;;;;;;;2.87;2.37;;;18.10;47.90;;;;;;5079299;28;20453;-51
2021/10/01 01:26:05;;;;;;;1.70;1.60;;;18.10;47.70;;;;;;5074425;28;20481;-52
2021/10/01 01:28:48;;;;;;;3.00;2.03;;;18.10;47.40;;;;;;5064780;28;20509;-50
2021/10/01 01:31:35;;;;;;;2.97;2.10;;;18.00;46.70;;;;;;5081505;28;20450;-51
2021/10/01 01:34:02;;;;;;;2.10;1.90;;;17.90;47.60;;;;;;5078688;28;20510;-52
2021/10/01 01:36:30;;;;;;;4.00;2.37;;;17.80;47.90;;;;;;5084077;28;20528;-48
2021/10/01 01:38:58;;;;;;;2.47;2.07;;;17.60;48.50;;;;;;5084589;28;20444;-52
2021/10/01 01:41:25;;;;;;;1.90;1.80;;;17.60;48.60;;;;;;5086880;28;20449;-48
2021/10/01 01:43:53;;;;;;;1.90;1.67;;;17.60;48.80;;;;;;5081257;28;20540;-46
2021/10/01 01:46:20;;;;;;;3.10;2.07;;;17.60;49.30;;;;;;5076802;28;20930;-46
2021/10/01 01:48:46;;;;;;;2.40;1.90;;;17.50;48.00;;;;;;5075579;28;20434;-48
2021/10/01 01:51:13;;;;;;;2.10;1.90;;;17.30;48.00;;;;;;5058489;28;20442;-47
2021/10/01 01:53:40;;;;;;;2.20;1.70;;;17.30;48.60;;;;;;5083329;28;20838;-46
2021/10/01 01:56:07;;;;;;;2.43;2.13;;;17.40;48.80;;;;;;5086730;28;20426;-49
2021/10/01 01:58:34;;;;;;;4.23;1.93;;;17.40;49.30;;;;;;5085247;28;21063;-50
2021/10/01 02:01:01;;;;;;;3.53;1.80;;;17.50;49.30;;;;;;5077044;28;20870;-46
2021/10/01 02:03:29;;;;;;;1.63;1.53;;;17.50;49.20;;;;;;5060878;28;20819;-46
2021/10/01 02:05:57;;;;;;;1.60;1.50;;;17.60;49.10;;;;;;5083549;28;20988;-47
2021/10/01 02:08:23;;;;;;;1.93;1.40;;;17.60;49.10;;;;;;5073024;28;20437;-46
2021/10/01 02:10:50;;;;;;;3.03;2.20;;;17.50;47.60;;;;;;5080096;28;20681;-47
2021/10/01 02:13:17;;;;;;;5.23;1.97;;;17.40;48.10;;;;;;5073191;28;20446;-46
2021/10/01 02:15:44;;;;;;;2.90;1.93;;;17.10;48.20;;;;;;5074475;28;20516;-49
2021/10/01 02:18:10;;;;;;;4.00;2.40;;;17.20;49.30;;;;;;5069566;28;20443;-52
2021/10/01 02:20:38;;;;;;;2.40;1.73;;;17.30;49.60;;;;;;5087777;28;20536;-47
2021/10/01 02:23:04;;;;;;;3.10;2.00;;;17.40;48.20;;;;;;5079755;28;20495;-46
2021/10/01 02:28:46;;;;;;;2.17;1.80;;;17.10;48.20;;;;;;5081187;28;20479;-46
2021/10/01 02:31:21;;;;;;;2.10;1.90;;;17.20;49.60;;;;;;5086179;28;20445;-46
2021/10/01 02:33:48;;;;;;;4.33;2.27;;;17.30;49.10;;;;;;5078734;28;20449;-46
2021/10/01 02:36:13;;;;;;;3.53;1.87;;;17.40;49.10;;;;;;5086259;28;20477;-47
2021/10/01 02:38:39;;;;;;;7.73;2.27;;;17.50;49.20;;;;;;5077445;28;20875;-46
2021/10/01 02:41:05;;;;;;;2.00;1.90;;;17.50;48.50;;;;;;5076300;28;20195;-47
2021/10/01 02:43:31;;;;;;;3.30;2.20;;;17.40;49.20;;;;;;5087182;28;20893;-46
2021/10/01 02:45:57;;;;;;;4.70;1.93;;;17.40;49.50;;;;;;5077053;28;20227;-49
2021/10/01 02:48:22;;;;;;;2.30;1.90;;;17.50;49.00;;;;;;5083714;28;20187;-46
2021/10/01 02:50:56;;;;;;;2.10;1.73;;;17.60;49.10;;;;;;5073487;28;20200;-47
2021/10/01 02:53:29;;;;;;;4.30;1.90;;;17.60;48.40;;;;;;5074584;28;20199;-47
2021/10/01 02:56:01;;;;;;;3.47;2.50;;;17.60;48.50;;;;;;5083081;28;20434;-46
2021/10/01 02:58:39;;;;;;;2.10;2.00;;;17.60;48.20;;;;;;5086289;28;20444;-46
2021/10/01 03:01:08;;;;;;;2.97;1.90;;;17.70;48.50;;;;;;5087327;28;20441;-46
2021/10/01 03:03:41;;;;;;;3.40;1.90;;;17.60;47.70;;;;;;5079030;28;20534;-46
2021/10/01 03:06:07;;;;;;;3.13;1.97;;;17.60;47.50;;;;;;5090291;28;20473;-49
2021/10/01 03:08:33;;;;;;;2.03;1.83;;;17.60;48.00;;;;;;5089506;28;20446;-46
2021/10/01 03:11:02;;;;;;;4.00;2.30;;;17.60;48.00;;;;;;5086631;28;20484;-46
2021/10/01 03:13:29;;;;;;;3.30;2.03;;;17.60;48.20;;;;;;5084726;28;20449;-45
2021/10/01 03:15:58;;;;;;;4.60;2.23;;;17.50;47.50;;;;;;5086446;28;20916;-46
2021/10/01 03:18:26;;;;;;;2.53;2.07;;;17.40;47.90;;;;;;5074845;28;20488;-47
2021/10/01 03:20:52;;;;;;;3.80;1.80;;;17.40;47.30;;;;;;5084877;28;20504;-46
2021/10/01 03:23:22;;;;;;;2.70;2.13;;;17.30;47.70;;;;;;5063013;28;20436;-46
2021/10/01 03:25:49;;;;;;;1.90;1.80;;;17.30;48.10;;;;;;5080337;28;20229;-48
2021/10/01 03:28:16;;;;;;;1.70;1.60;;;17.30;47.90;;;;;;5080612;28;20469;-47
2021/10/01 03:30:45;;;;;;;3.00;1.80;;;17.30;48.20;;;;;;5081836;28;20441;-47
2021/10/01 03:33:11;;;;;;;2.20;2.00;;;17.40;48.20;;;;;;5080398;28;20495;-50
2021/10/01 03:35:39;;;;;;;2.40;1.80;;;17.30;47.10;;;;;;5087278;28;20453;-47
2021/10/01 03:38:05;;;;;;;2.60;1.80;;;17.30;47.80;;;;;;5088888;28;20477;-46
2021/10/01 03:40:32;;;;;;;3.03;1.80;;;17.30;48.20;;;;;;5086403;28;20474;-46
2021/10/01 03:42:58;;;;;;;3.13;1.77;;;17.40;49.00;;;;;;5086497;28;20191;-47
2021/10/01 03:45:23;;;;;;;3.07;1.90;;;17.40;48.30;;;;;;5080641;28;20491;-46
2021/10/01 03:47:49;;;;;;;2.20;2.00;;;17.50;48.50;;;;;;5084641;28;20192;-49
2021/10/01 03:50:15;;;;;;;2.73;1.70;;;17.50;48.50;;;;;;5083725;28;20236;-46
2021/10/01 03:52:40;;;;;;;2.07;1.87;;;17.60;48.20;;;;;;5088323;28;20188;-45
2021/10/01 03:55:08;;;;;;;2.00;1.50;;;17.60;48.40;;;;;;5082084;28;20561;-47
2021/10/01 03:57:35;;;;;;;2.27;1.97;;;17.60;47.70;;;;;;5086279;28;20225;-46
2021/10/01 04:00:05;;;;;;;1.90;1.53;;;17.60;47.60;;;;;;5082772;28;20433;-48
2021/10/01 04:02:30;;;;;;;2.20;1.57;;;17.50;47.60;;;;;;5088299;28;20524;-48
2021/10/01 04:04:56;;;;;;;2.03;1.37;;;17.40;48.40;;;;;;5077392;28;20528;-47
2021/10/01 04:07:21;;;;;;;2.60;1.90;;;17.30;48.10;;;;;;5076357;28;20199;-47
2021/10/01 04:09:47;;;;;;;1.73;1.60;;;17.40;48.50;;;;;;5080734;28;20231;-46
2021/10/01 04:12:13;;;;;;;2.93;2.10;;;17.20;47.20;;;;;;5084143;28;20191;-47
2021/10/01 04:14:38;;;;;;;3.73;1.83;;;17.10;48.60;;;;;;5088088;28;20614;-46
2021/10/01 04:17:04;;;;;;;1.53;1.40;;;17.10;48.90;;;;;;5077974;28;20612;-50
2021/10/01 04:19:30;;;;;;;2.93;1.30;;;17.10;48.60;;;;;;5089368;28;20198;-46
2021/10/01 04:21:55;;;;;;;2.50;1.50;;;17.10;48.60;;;;;;5077045;28;20619;-47
2021/10/01 04:24:21;;;;;;;1.77;1.67;;;17.10;49.40;;;;;;5082618;28;20244;-46
2021/10/01 04:26:46;;;;;;;5.23;1.57;;;17.30;50.00;;;;;;5076596;28;20374;-47
2021/10/01 04:29:12;;;;;;;1.47;1.33;;;17.30;48.80;;;;;;5081296;28;20238;-50
2021/10/01 04:31:38;;;;;;;3.50;2.00;;;17.40;49.30;;;;;;5079808;28;20610;-46
2021/10/01 04:34:04;;;;;;;1.90;1.60;;;17.50;49.00;;;;;;5072544;28;20192;-46
2021/10/01 04:36:32;;;;;;;2.90;2.10;;;17.50;48.50;;;;;;5083528;28;20258;-47
2021/10/01 04:38:58;;;;;;;2.90;1.70;;;17.50;48.70;;;;;;5080385;28;20968;-48
2021/10/01 04:41:23;;;;;;;1.80;1.70;;;17.50;49.00;;;;;;5074831;28;20430;-46
2021/10/01 04:43:49;;;;;;;1.60;1.43;;;17.60;48.60;;;;;;5087525;28;20517;-48
2021/10/01 04:46:15;;;;;;;2.93;1.67;;;17.50;48.00;;;;;;5087240;28;20219;-49
2021/10/01 04:48:41;;;;;;;12.00;2.00;;;17.50;46.60;;;;;;5074909;28;20224;-51
2021/10/01 04:51:07;;;;;;;2.07;1.60;;;17.10;46.10;;;;;;5080640;28;20477;-48
2021/10/01 04:53:32;;;;;;;1.80;1.70;;;16.70;46.90;;;;;;5076611;28;20195;-48
2021/10/01 04:55:58;;;;;;;3.33;1.40;;;16.30;47.40;;;;;;5074147;28;20202;-46
2021/10/01 04:58:24;;;;;;;2.43;1.80;;;15.60;49.00;;;;;;5080472;28;20206;-48
2021/10/01 05:00:49;;;;;;;3.23;1.50;;;15.30;49.90;;;;;;5074546;28;20192;-50
2021/10/01 05:03:15;;;;;;;2.50;1.70;;;;;;;;;;5082417;28;20222;-49
2021/10/01 05:05:41;;;;;;;2.67;1.80;;;14.70;50.50;;;;;;5078711;28;21309;-47
2021/10/01 05:08:06;;;;;;;2.13;1.70;;;14.50;51.50;;;;;;5078171;28;20441;-50
2021/10/01 05:10:32;;;;;;;5.57;2.63;;;14.40;51.50;;;;;;5077855;28;20287;-51
2021/10/01 05:12:57;;;;;;;3.27;2.20;;;14.40;51.60;;;;;;5080480;28;20215;-48
2021/10/01 05:15:23;;;;;;;3.23;2.50;;;14.00;52.70;;;;;;5072993;28;20542;-49
2021/10/01 05:17:50;;;;;;;2.20;2.00;;;13.80;53.10;;;;;;5073896;28;20219;-46
2021/10/01 05:20:16;;;;;;;4.70;2.33;;;13.80;53.30;;;;;;5079719;28;20574;-48
2021/10/01 05:22:42;;;;;;;2.20;1.93;;;13.60;54.20;;;;;;5085560;28;20433;-48
2021/10/01 05:25:08;;;;;;;3.37;2.30;;;13.50;53.80;;;;;;5083979;28;20215;-47
2021/10/01 05:27:34;;;;;;;17.53;2.27;;;13.30;54.10;;;;;;5082318;28;20208;-49
2021/10/01 05:30:00;;;;;;;2.60;1.87;;;13.30;62.10;;;;;;5078898;28;21164;-46
2021/10/01 05:32:26;;;;;;;2.47;1.60;;;13.60;59.70;;;;;;5082670;28;20214;-46
2021/10/01 05:34:52;;;;;;;3.00;2.10;;;14.10;56.60;;;;;;5085832;28;20461;-46
2021/10/01 05:37:19;;;;;;;1.50;1.37;;;14.60;54.60;;;;;;5087838;28;20192;-47
2021/10/01 05:39:44;;;;;;;1.97;1.60;;;14.90;53.00;;;;;;5058633;28;20941;-46
2021/10/01 05:42:10;;;;;;;1.90;1.80;;;15.20;51.90;;;;;;5086392;28;20429;-47
2021/10/01 05:44:36;;;;;;;1.77;1.67;;;15.40;51.30;;;;;;5090188;28;20191;-47
2021/10/01 05:47:05;;;;;;;2.80;1.40;;;15.40;50.90;;;;;;5088128;28;20290;-46
2021/10/01 05:49:43;;;;;;;4.97;1.93;;;15.50;50.60;;;;;;5082859;28;20203;-46
2021/10/01 05:54:41;;;;;;;3.00;2.10;;;15.90;49.70;;;;;;5086781;28;20457;-47
2021/10/01 05:57:08;;;;;;;3.03;2.40;;;15.90;49.30;;;;;;5088732;28;20426;-47
2021/10/01 05:59:36;;;;;;;2.50;1.80;;;16.10;48.80;;;;;;5071759;28;20427;-46
2021/10/01 06:02:03;;;;;;;4.77;1.87;;;15.90;48.80;;;;;;5082754;28;20515;-47
2021/10/01 06:04:28;;;;;;;2.10;1.70;;;16.00;49.00;;;;;;5083893;28;20525;-46
2021/10/01 06:06:54;;;;;;;2.97;1.50;;;16.00;49.40;;;;;;5078763;28;21044;-47
2021/10/01 06:09:20;;;;;;;2.53;1.77;;;16.00;49.00;;;;;;5082265;28;20559;-47
2021/10/01 06:11:46;;;;;;;1.90;1.43;;;16.20;48.90;;;;;;5087637;28;20619;-47
2021/10/01 06:14:12;;;;;;;1.87;1.53;;;16.30;48.50;;;;;;5083178;28;20442;-46
2021/10/01 06:16:38;;;;;;;1.70;1.60;;;16.40;48.20;;;;;;5088488;28;20440;-45
2021/10/01 06:19:04;;;;;;;1.70;1.57;;;16.60;48.00;;;;;;5088544;28;20951;-46
2021/10/01 06:21:29;;;;;;;2.10;1.90;;;16.60;47.90;;;;;;5090175;28;20449;-46
2021/10/01 06:23:56;;;;;;;1.50;1.40;;;16.60;47.90;;;;;;5079751;28;20425;-46
2021/10/01 06:26:21;;;;;;;3.13;2.30;;;16.50;48.30;;;;;;5089456;28;20274;-47
2021/10/01 06:28:47;;;;;;;4.80;1.80;;;16.50;48.30;;;;;;5073496;28;20847;-47
2021/10/01 06:31:12;;;;;;;1.87;1.77;;;16.50;48.10;;;;;;5080439;28;20190;-47
2021/10/01 06:33:38;;;;;;;2.10;1.67;;;16.60;48.30;;;;;;5081050;28;20358;-46
2021/10/01 06:36:04;;;;;;;4.50;2.37;;;16.70;48.20;;;;;;5086620;28;20316;-46
2021/10/01 06:38:31;;;;;;;1.90;1.80;;;16.70;48.20;;;;;;5077841;28;20192;-48
2021/10/01 06:40:58;;;;;;;3.77;2.03;;;16.70;48.20;;;;;;5085313;28;20280;-48
2021/10/01 06:43:24;;;;;;;3.70;2.10;;;16.60;48.80;;;;;;5076845;28;20794;-47
2021/10/01 06:45:51;;;;;;;1.57;1.47;;;16.50;49.60;;;;;;5086537;28;20484;-47
2021/10/01 08:20:40;;;;;;;4.00;2.30;;;20.20;45.20;;;;;;5090962;28;20824;-48
2021/10/01 08:23:06;;;;;;;2.90;2.63;;;20.20;45.20;;;;;;5088938;28;21223;-48
2021/10/01 08:25:33;;;;;;;6.23;2.80;;;20.10;45.10;;;;;;5087791;28;20524;-47
2021/10/01 08:28:00;;;;;;;5.07;2.50;;;20.10;45.40;;;;;;5091465;28;20235;-48
2021/10/01 08:30:26;;;;;;;3.57;2.30;;;20.20;45.10;;;;;;5088460;28;20435;-47
2021/10/01 08:32:52;;;;;;;1.93;1.83;;;20.30;45.30;;;;;;5088119;28;20512;-50
2021/10/01 08:35:21;;;;;;;3.13;2.60;;;20.00;45.50;;;;;;5084535;28;20471;-52
2021/10/01 08:37:48;;;;;;;4.93;2.50;;;19.80;45.80;;;;;;5086535;28;20506;-50
2021/10/01 08:40:14;;;;;;;8.07;3.33;;;19.50;46.80;;;;;;5088569;28;20449;-49
2021/10/01 08:42:40;;;;;;;3.50;2.33;;;19.50;47.50;;;;;;5086475;28;20437;-47
2021/10/01 08:45:09;;;;;;;3.63;2.33;;;19.70;47.20;;;;;;5084754;28;20965;-49
2021/10/01 08:47:35;;;;;;;2.60;2.13;;;19.90;46.60;;;;;;5085342;28;20433;-47
2021/10/01 08:50:02;;;;;;;2.80;1.80;;;20.20;46.30;;;;;;5082705;28;20434;-48
2021/10/01 08:52:28;;;;;;;2.40;2.10;;;20.30;46.10;;;;;;5087331;28;20835;-47
2021/10/01 08:54:53;;;;;;;2.27;1.77;;;20.60;45.80;;;;;;5081904;28;20456;-49
2021/10/01 08:57:19;;;;;;;3.67;2.63;;;20.70;45.20;;;;;;5076060;28;20223;-49
2021/10/01 08:59:44;;;;;;;2.50;2.03;;;20.90;44.80;;;;;;5084530;28;20560;-53
2021/10/01 09:02:10;;;;;;;2.37;1.70;;;21.00;44.80;;;;;;5084684;28;20226;-47
2021/10/01 09:04:36;;;;;;;2.50;2.00;;;21.20;44.90;;;;;;5086718;28;20298;-48
2021/10/01 09:07:04;;;;;;;2.63;1.90;;;21.30;44.30;;;;;;5084485;28;20664;-50
2021/10/01 09:09:43;;;;;;;2.53;1.63;;;21.50;44.10;;;;;;5084618;28;20191;-47
2021/10/01 09:12:09;;;;;;;2.67;1.90;;;21.60;43.80;;;;;;5086854;28;21077;-50
2021/10/01 09:14:47;;;;;;;2.80;1.80;;;21.70;43.50;;;;;;5088856;28;20438;-48
2021/10/01 09:17:15;;;;;;;1.67;1.57;;;21.90;43.40;;;;;;5085043;28;20855;-49
2021/10/01 09:19:43;;;;;;;3.13;1.80;;;22.00;42.90;;;;;;5084915;28;20522;-48
2021/10/01 09:22:09;;;;;;;3.93;1.90;;;22.10;43.00;;;;;;5083789;28;20469;-48
2021/10/01 09:24:41;;;;;;;4.87;2.50;;;22.30;42.70;;;;;;5080235;28;20973;-48
2021/10/01 09:27:09;;;;;;;3.73;2.50;;;22.40;42.40;;;;;;5078741;28;20513;-47
2021/10/01 09:29:36;;;;;;;2.37;2.17;;;22.60;42.40;;;;;;5077947;28;20473;-48
2021/10/01 09:32:10;;;;;;;4.30;1.93;;;22.70;41.90;;;;;;5082722;28;20497;-47
2021/10/01 09:34:42;;;;;;;2.17;1.80;;;22.70;41.70;;;;;;5085326;28;20439;-50
2021/10/01 09:37:12;;;;;;;1.50;1.40;;;22.80;41.40;;;;;;5081750;28;20457;-47
2021/10/01 09:39:40;;;;;;;4.47;2.10;;;23.00;41.10;;;;;;5074425;28;20448;-47
2021/10/01 09:42:11;;;;;;;3.63;2.47;;;23.10;41.40;;;;;;5077161;28;20460;-49
2021/10/01 09:44:49;;;;;;;4.37;1.53;;;23.20;41.20;;;;;;5075603;28;20453;-49
2021/10/01 09:47:17;;;;;;;1.83;1.60;;;23.30;40.80;;;;;;5082566;28;20519;-47
2021/10/01 09:49:43;;;;;;;1.50;1.40;;;23.40;40.70;;;;;;5083216;28;20422;-48
2021/10/01 09:52:11;;;;;;;2.10;1.60;;;23.60;41.10;;;;;;5083077;28;20536;-47
2021/10/01 09:54:38;;;;;;;2.23;1.90;;;23.70;40.20;;;;;;5072236;28;20271;-51
2021/10/01 09:57:06;;;;;;;3.53;1.50;;;23.80;39.80;;;;;;5077098;28;20438;-48
2021/10/01 09:59:33;;;;;;;2.50;1.43;;;23.90;39.90;;;;;;5081734;28;20446;-47
2021/10/01 10:02:05;;;;;;;2.60;1.70;;;24.00;40.30;;;;;;5080330;28;20429;-47
2021/10/01 10:04:39;;;;;;;4.43;1.90;;;24.10;39.30;;;;;;5082772;28;20819;-47
2021/10/01 10:07:11;;;;;;;2.00;1.47;;;24.30;38.90;;;;;;5078848;28;20610;-47
2021/10/01 10:09:39;;;;;;;1.90;1.60;;;24.30;39.00;;;;;;5089128;28;20441;-48
2021/10/01 10:12:06;;;;;;;3.50;2.10;;;24.20;39.00;;;;;;5082628;28;20469;-50
2021/10/01 10:14:34;;;;;;;4.70;1.70;;;24.20;39.30;;;;;;5083603;28;20429;-47
2021/10/01 10:17:00;;;;;;;2.63;1.50;;;23.90;39.80;;;;;;5079721;28;20504;-47
2021/10/01 10:19:30;;;;;;;1.60;1.50;;;23.90;39.80;;;;;;5076534;28;21278;-48
2021/10/01 10:21:58;;;;;;;5.37;2.10;;;24.20;40.10;;;;;;5089720;28;20438;-48
2021/10/01 10:24:24;;;;;;;1.50;1.40;;;24.50;39.70;;;;;;5079149;28;20491;-49
2021/10/01 10:26:50;;;;;;;3.67;1.83;;;24.70;39.50;;;;;;5077603;28;20485;-50
2021/10/01 10:29:16;;;;;;;3.63;1.23;;;24.80;37.70;;;;;;5081945;28;20480;-47
2021/10/01 10:31:46;;;;;;;2.93;2.10;;;25.00;38.30;;;;;;5080662;28;20199;-47
2021/10/01 10:34:19;;;;;;;2.30;1.23;;;25.20;37.70;;;;;;5080699;28;20425;-48
2021/10/01 10:36:48;;;;;;;4.37;1.53;;;25.50;37.60;;;;;;5084306;28;20437;-47
2021/10/01 10:39:15;;;;;;;2.87;1.33;;;25.60;37.80;;;;;;5079582;28;20502;-49
2021/10/01 10:41:45;;;;;;;2.00;1.50;;;25.80;37.90;;;;;;5081483;28;20441;-48
2021/10/01 10:44:13;;;;;;;1.67;1.43;;;25.90;37.00;;;;;;5082590;28;20453;-49
2021/10/01 10:46:44;;;;;;;1.73;1.40;;;26.10;35.50;;;;;;5087987;28;20492;-47
2021/10/01 10:49:21;;;;;;;2.73;1.30;;;26.20;35.70;;;;;;5073087;28;20494;-49
2021/10/01 10:52:10;;;;;;;1.40;1.30;;;26.40;35.80;;;;;;5082756;28;21046;-49
2021/10/01 10:54:39;;;;;;;5.50;1.50;;;26.40;33.50;;;;;;5077815;28;20475;-47
2021/10/01 10:57:22;;;;;;;2.03;1.00;;;25.60;34.40;;;;;;5061209;28;20961;-47
2021/10/01 10:59:50;;;;;;;3.27;1.50;;;25.70;35.00;;;;;;5080254;28;20450;-47
2021/10/01 11:02:19;;;;;;;1.40;1.10;;;26.00;33.90;;;;;;5086105;28;20443;-47
2021/10/01 11:04:49;;;;;;;2.10;1.40;;;26.10;34.80;;;;;;5086119;28;20445;-49
2021/10/01 11:07:46;;;;;;;1.83;1.20;;;26.30;33.80;;;;;;5084664;28;20493;-50
2021/10/01 11:10:38;;;;;;;0.90;0.90;;;26.40;32.80;;;;;;5053665;28;20774;-51
2021/10/01 11:13:18;;;;;;;2.90;1.10;;;26.60;33.40;;;;;;5081445;28;20459;-47
2021/10/01 11:16:09;;;;;;;2.87;1.40;;;26.70;33.00;;;;;;5074924;28;20437;-48
2021/10/01 11:18:34;;;;;;;1.80;1.30;;;26.80;32.00;;;;;;5079861;28;20449;-48
2021/10/01 11:21:01;;;;;;;1.83;1.20;;;26.90;31.40;;;;;;5085693;28;21358;-48
2021/10/01 11:23:27;;;;;;;2.70;1.50;;;27.00;31.80;;;;;;5080922;28;20217;-48
2021/10/01 11:25:52;;;;;;;3.40;1.43;;;27.10;31.50;;;;;;5089988;28;20476;-47
2021/10/01 11:28:31;;;;;;;2.23;1.53;;;27.10;31.70;;;;;;5086605;28;20713;-47
2021/10/01 11:30:57;;;;;;;1.50;1.40;;;27.20;31.40;;;;;;5083931;28;20195;-52
2021/10/01 11:33:23;;;;;;;2.27;1.30;;;26.90;31.40;;;;;;5092393;28;20425;-48
2021/10/01 11:35:53;;;;;;;2.23;1.30;;;26.70;33.30;;;;;;5085998;28;20790;-49
2021/10/01 11:38:29;;;;;;;1.97;1.43;;;26.50;32.70;;;;;;5086636;28;20191;-49
2021/10/01 11:41:15;;;;;;;2.60;1.33;;;26.80;33.40;;;;;;5080111;28;20434;-47
2021/10/01 11:43:53;;;;;;;3.17;1.33;;;27.00;32.70;;;;;;5087951;28;20486;-48
2021/10/01 11:46:29;;;;;;;1.30;1.20;;;27.30;32.10;;;;;;5074408;28;20538;-49
2021/10/01 11:48:55;;;;;;;2.80;1.30;;;27.30;32.10;;;;;;5085366;28;20806;-48
2021/10/01 11:51:21;;;;;;;1.70;1.60;;;27.10;31.60;;;;;;5077260;28;20434;-48
2021/10/01 11:53:47;;;;;;;1.50;1.40;;;27.20;34.10;;;;;;5073627;28;20192;-48
2021/10/01 11:56:13;;;;;;;1.40;1.30;;;27.40;32.20;;;;;;5080552;28;20191;-47
2021/10/01 11:58:39;;;;;;;2.93;2.17;;;27.30;31.20;;;;;;5074219;28;20211;-47
2021/10/01 12:01:12;;;;;;;1.63;1.10;;;27.00;32.50;;;;;;5079945;28;20798;-47
2021/10/01 12:03:54;;;;;;;2.40;1.30;;;27.10;32.60;;;;;;5084211;28;20771;-48
2021/10/01 12:06:25;;;;;;;4.40;1.43;;;27.20;33.30;;;;;;5086325;28;21053;-48
2021/10/01 12:08:59;;;;;;;1.63;1.50;;;27.60;33.90;;;;;;5085859;28;20425;-49
2021/10/01 12:11:27;;;;;;;2.20;1.47;;;28.00;33.00;;;;;;5082525;28;20502;-49
2021/10/01 12:13:53;;;;;;;2.63;1.30;;;28.20;31.70;;;;;;5092135;28;20432;-48
2021/10/01 12:16:18;;;;;;;1.50;1.40;;;28.40;32.20;;;;;;5088229;28;20864;-48
2021/10/01 12:19:05;;;;;;;1.57;1.23;;;28.60;30.80;;;;;;5087446;28;20196;-47
2021/10/01 12:21:31;;;;;;;1.73;1.30;;;28.80;30.30;;;;;;5077265;28;20222;-47
2021/10/01 12:24:04;;;;;;;2.80;1.47;;;28.80;31.80;;;;;;5084846;28;20444;-50
2021/10/01 12:26:33;;;;;;;2.53;1.60;;;29.00;30.70;;;;;;5084732;28;20521;-48
2021/10/01 12:29:14;;;;;;;2.03;1.50;;;29.20;29.80;;;;;;5077034;28;20960;-49
2021/10/01 12:31:41;;;;;;;2.17;1.30;;;29.10;28.90;;;;;;5079573;28;20450;-48
2021/10/01 12:34:16;;;;;;;1.60;1.40;;;29.10;30.20;;;;;;5089050;28;20932;-48
2021/10/01 12:36:44;;;;;;;1.40;1.13;;;29.00;30.60;;;;;;5090289;28;20428;-48
2021/10/01 12:39:10;;;;;;;1.20;1.10;;;29.00;29.10;;;;;;5091877;28;20438;-52
2021/10/01 12:41:36;;;;;;;1.37;1.23;;;29.00;29.60;;;;;;5088393;28;20418;-46
2021/10/01 12:44:04;;;;;;;1.20;1.10;;;29.10;29.80;;;;;;5086487;28;20440;-48
2021/10/01 12:46:38;;;;;;;4.10;1.13;;;29.30;29.40;;;;;;5090261;28;20317;-47
2021/10/01 12:49:11;;;;;;;4.17;1.77;;;29.20;28.50;;;;;;5088387;28;20800;-47
2021/10/01 12:51:37;;;;;;;1.40;1.03;;;29.10;28.20;;;;;;5091432;28;20520;-48
2021/10/01 12:54:23;;;;;;;2.07;1.30;;;29.20;27.50;;;;;;5084773;28;20548;-52
2021/10/01 12:57:08;;;;;;;1.30;1.20;;;29.10;27.90;;;;;;5091660;28;20193;-50
2021/10/01 12:59:43;;;;;;;1.43;1.20;;;29.20;27.90;;;;;;5071658;28;20437;-47
2021/10/01 13:02:12;;;;;;;2.60;1.10;;;29.30;27.60;;;;;;5084890;28;20456;-47
2021/10/01 13:04:50;;;;;;;1.47;1.00;;;29.20;28.00;;;;;;5089933;28;20449;-48
2021/10/01 13:07:38;;;;;;;1.93;1.30;;;29.40;27.90;;;;;;5092482;28;20488;-49
2021/10/01 13:10:28;;;;;;;1.20;1.10;;;29.20;27.70;;;;;;5085421;28;20445;-47
2021/10/01 13:12:54;;;;;;;1.93;1.37;;;28.70;28.60;;;;;;5089001;28;20437;-47
2021/10/01 13:15:26;;;;;;;1.30;1.20;;;28.90;28.70;;;;;;5088023;28;20574;-48
2021/10/01 13:21:32;;;;;;;1.70;1.30;;;29.20;27.90;;;;;;5078719;28;20874;-50
2021/10/01 13:24:00;;;;;;;4.40;1.33;;;29.10;28.30;;;;;;5075637;28;20456;-46
2021/10/01 13:26:31;;;;;;;1.63;1.20;;;29.00;28.40;;;;;;5075899;28;20478;-46
2021/10/01 13:29:01;;;;;;;1.30;1.20;;;29.10;28.60;;;;;;5078877;28;20465;-46
2021/10/01 13:31:29;;;;;;;2.40;1.43;;;29.30;28.50;;;;;;5085878;28;20522;-46
2021/10/01 13:33:56;;;;;;;3.03;1.50;;;29.60;28.60;;;;;;5087848;28;20425;-47
2021/10/01 13:36:22;;;;;;;1.47;1.20;;;29.80;28.20;;;;;;5090200;28;20417;-49
2021/10/01 13:38:48;;;;;;;3.43;1.50;;;29.80;28.10;;;;;;5078840;28;20549;-46
2021/10/01 13:41:17;;;;;;;2.13;1.30;;;29.70;28.00;;;;;;5072890;28;20419;-46
2021/10/01 13:43:43;;;;;;;2.07;1.33;;;29.90;28.10;;;;;;5072275;28;20997;-46
2021/10/01 13:46:13;;;;;;;3.50;1.93;;;29.90;28.60;;;;;;5081483;28;20573;-46
2021/10/01 13:48:39;;;;;;;1.77;1.67;;;29.40;28.80;;;;;;5082988;28;20544;-48
2021/10/01 13:51:06;;;;;;;2.90;2.33;;;29.50;28.60;;;;;;5086464;28;20516;-46
2021/10/01 13:53:32;;;;;;;2.47;1.70;;;29.50;28.90;;;;;;5080479;28;20180;-46
2021/10/01 13:55:57;;;;;;;1.70;1.60;;;29.40;28.60;;;;;;5080751;28;20441;-45
2021/10/01 13:58:23;;;;;;;6.27;1.70;;;29.40;28.50;;;;;;5076977;28;20246;-45
2021/10/01 14:00:53;;;;;;;2.90;1.70;;;29.60;28.90;;;;;;5071897;28;20530;-49
2021/10/01 14:03:21;;;;;;;2.80;1.97;;;29.50;28.40;;;;;;5080559;28;20465;-45
2021/10/01 14:05:48;;;;;;;3.23;1.77;;;29.40;28.70;;;;;;5075630;28;20497;-45
2021/10/01 14:08:15;;;;;;;3.10;1.87;;;29.40;29.00;;;;;;5072922;28;20465;-50
2021/10/01 14:10:42;;;;;;;2.23;1.63;;;29.50;28.90;;;;;;5083841;28;20487;-48
2021/10/01 14:13:11;;;;;;;2.00;1.90;;;29.50;28.90;;;;;;5087452;28;20440;-45
2021/10/01 14:15:38;;;;;;;2.23;2.03;;;29.60;29.10;;;;;;5078062;28;20441;-49
2021/10/01 14:18:04;;;;;;;3.30;2.27;;;29.60;29.30;;;;;;5072428;28;20793;-46
2021/10/01 14:20:30;;;;;;;2.23;1.90;;;29.70;29.10;;;;;;5066857;28;20438;-46
2021/10/01 14:22:56;;;;;;;3.00;2.20;;;29.70;29.10;;;;;;5076943;28;20190;-46
2021/10/01 14:25:23;;;;;;;2.40;2.03;;;29.70;29.40;;;;;;5077918;28;20477;-47
2021/10/01 14:27:49;;;;;;;3.07;2.23;;;29.70;29.50;;;;;;5083605;28;20467;-48
2021/10/01 14:30:18;;;;;;;2.50;2.30;;;29.70;29.70;;;;;;5073668;28;20874;-45
2021/10/01 14:32:45;;;;;;;2.93;2.30;;;29.70;29.70;;;;;;5071155;28;20449;-46
2021/10/01 14:35:12;;;;;;;2.20;2.00;;;29.70;29.60;;;;;;5071377;28;20439;-45
2021/10/01 14:37:39;;;;;;;2.70;2.50;;;29.70;29.90;;;;;;5073537;28;20449;-45